sensor_id;sensor_type;location;lat;lon;timestamp;pressure;altitude;pressure_sealevel;temperature
64394;BMP280;50712;49.506;10.400;2024-02-21T00:00:08;98937.88;;;10.48
64394;BMP280;50712;49.506;10.400;2024-02-21T00:00:41;98937.88;;;10.48
64394;BMP280;50712;49.506;10.400;2024-02-21T00:01:15;98935.56;;;10.47
64394;BMP280;50712;49.506;10.400;2024-02-21T00:01:46;98945.28;;;10.48
64394;BMP280;50712;49.506;10.400;2024-02-21T00:02:16;98934.38;;;10.48
64394;BMP280;50712;49.506;10.400;2024-02-21T00:02:47;98932.81;;;10.47
64394;BMP280;50712;49.506;10.400;2024-02-21T00:03:17;98937.50;;;10.46
64394;BMP280;50712;49.506;10.400;2024-02-21T00:03:47;98937.50;;;10.46
64394;BMP280;50712;49.506;10.400;2024-02-21T00:04:18;98934.78;;;10.46
64394;BMP280;50712;49.506;10.400;2024-02-21T00:04:48;98931.28;;;10.46
64394;BMP280;50712;49.506;10.400;2024-02-21T00:05:18;98935.22;;;10.45
64394;BMP280;50712;49.506;10.400;2024-02-21T00:05:49;98929.78;;;10.45
64394;BMP280;50712;49.506;10.400;2024-02-21T00:06:19;98933.25;;;10.45
64394;BMP280;50712;49.506;10.400;2024-02-21T00:06:49;98927.81;;;10.45
64394;BMP280;50712;49.506;10.400;2024-02-21T00:07:20;98927.06;;;10.45
64394;BMP280;50712;49.506;10.400;2024-02-21T00:07:50;98928.56;;;10.46
64394;BMP280;50712;49.506;10.400;2024-02-21T00:08:20;98929.78;;;10.45
64394;BMP280;50712;49.506;10.400;2024-02-21T00:08:51;98921.63;;;10.45
64394;BMP280;50712;49.506;10.400;2024-02-21T00:09:21;98925.81;;;10.46
64394;BMP280;50712;49.506;10.400;2024-02-21T00:09:51;98922.34;;;10.45
64394;BMP280;50712;49.506;10.400;2024-02-21T00:10:22;98918.88;;;10.45
64394;BMP280;50712;49.506;10.400;2024-02-21T00:10:52;98911.47;;;10.45
64394;BMP280;50712;49.506;10.400;2024-02-21T00:11:22;98922.34;;;10.45
64394;BMP280;50712;49.506;10.400;2024-02-21T00:11:53;98914.94;;;10.46
64394;BMP280;50712;49.506;10.400;2024-02-21T00:12:23;98919.63;;;10.45
64394;BMP280;50712;49.506;10.400;2024-02-21T00:12:53;98916.91;;;10.45
64394;BMP280;50712;49.506;10.400;2024-02-21T00:13:24;98915.69;;;10.46
64394;BMP280;50712;49.506;10.400;2024-02-21T00:13:54;98914.19;;;10.45
64394;BMP280;50712;49.506;10.400;2024-02-21T00:14:25;98906.75;;;10.46
64394;BMP280;50712;49.506;10.400;2024-02-21T00:14:55;98907.53;;;10.46
64394;BMP280;50712;49.506;10.400;2024-02-21T00:15:25;98907.53;;;10.46
64394;BMP280;50712;49.506;10.400;2024-02-21T00:15:56;98912.19;;;10.46
64394;BMP280;50712;49.506;10.400;2024-02-21T00:16:26;98912.97;;;10.46
64394;BMP280;50712;49.506;10.400;2024-02-21T00:16:56;98911.47;;;10.45
64394;BMP280;50712;49.506;10.400;2024-02-21T00:17:27;98921.16;;;10.46
64394;BMP280;50712;49.506;10.400;2024-02-21T00:17:57;98911.47;;;10.45
64394;BMP280;50712;49.506;10.400;2024-02-21T00:18:27;98906.75;;;10.46
64394;BMP280;50712;49.506;10.400;2024-02-21T00:18:58;98912.97;;;10.46
64394;BMP280;50712;49.506;10.400;2024-02-21T00:19:29;98912.19;;;10.46
64394;BMP280;50712;49.506;10.400;2024-02-21T00:19:59;98918.44;;;10.46
64394;BMP280;50712;49.506;10.400;2024-02-21T00:20:29;98916.16;;;10.45
64394;BMP280;50712;49.506;10.400;2024-02-21T00:21:00;98911.47;;;10.45
64394;BMP280;50712;49.506;10.400;2024-02-21T00:21:31;98913.44;;;10.45
64394;BMP280;50712;49.506;10.400;2024-02-21T00:22:02;98909.94;;;10.44
64394;BMP280;50712;49.506;10.400;2024-02-21T00:22:32;98912.66;;;10.44
64394;BMP280;50712;49.506;10.400;2024-02-21T00:23:03;98911.88;;;10.44
64394;BMP280;50712;49.506;10.400;2024-02-21T00:23:33;98909.94;;;10.44
64394;BMP280;50712;49.506;10.400;2024-02-21T00:24:04;98904.50;;;10.44
64394;BMP280;50712;49.506;10.400;2024-02-21T00:24:34;98912.66;;;10.44
64394;BMP280;50712;49.506;10.400;2024-02-21T00:25:05;98911.47;;;10.45
64394;BMP280;50712;49.506;10.400;2024-02-21T00:25:35;98909.94;;;10.44
64394;BMP280;50712;49.506;10.400;2024-02-21T00:26:05;98905.25;;;10.45
64394;BMP280;50712;49.506;10.400;2024-02-21T00:26:36;98907.22;;;10.44
64394;BMP280;50712;49.506;10.400;2024-02-21T00:27:06;98908.72;;;10.45
64394;BMP280;50712;49.506;10.400;2024-02-21T00:27:36;98908.00;;;10.45
64394;BMP280;50712;49.506;10.400;2024-02-21T00:28:07;98909.94;;;10.44
64394;BMP280;50712;49.506;10.400;2024-02-21T00:28:37;98902.94;;;10.43
64394;BMP280;50712;49.506;10.400;2024-02-21T00:29:07;98906.44;;;10.44
64394;BMP280;50712;49.506;10.400;2024-02-21T00:29:38;98909.94;;;10.44
64394;BMP280;50712;49.506;10.400;2024-02-21T00:30:08;98902.16;;;10.43
64394;BMP280;50712;49.506;10.400;2024-02-21T00:30:39;98894.75;;;10.43
64394;BMP280;50712;49.506;10.400;2024-02-21T00:31:10;98904.50;;;10.44
64394;BMP280;50712;49.506;10.400;2024-02-21T00:31:40;98901.00;;;10.44
64394;BMP280;50712;49.506;10.400;2024-02-21T00:32:11;98903.72;;;10.44
64394;BMP280;50712;49.506;10.400;2024-02-21T00:32:42;98891.28;;;10.43
64394;BMP280;50712;49.506;10.400;2024-02-21T00:33:12;98895.19;;;10.42
64394;BMP280;50712;49.506;10.400;2024-02-21T00:33:42;98896.72;;;10.43
64394;BMP280;50712;49.506;10.400;2024-02-21T00:34:13;98888.53;;;10.43
64394;BMP280;50712;49.506;10.400;2024-02-21T00:34:43;98889.75;;;10.42
64394;BMP280;50712;49.506;10.400;2024-02-21T00:35:14;98884.28;;;10.42
64394;BMP280;50712;49.506;10.400;2024-02-21T00:35:44;98884.28;;;10.42
64394;BMP280;50712;49.506;10.400;2024-02-21T00:36:15;98882.31;;;10.42
64394;BMP280;50712;49.506;10.400;2024-02-21T00:36:45;98879.59;;;10.42
64394;BMP280;50712;49.506;10.400;2024-02-21T00:37:15;98893.22;;;10.42
64394;BMP280;50712;49.506;10.400;2024-02-21T00:37:46;98885.81;;;10.43
64394;BMP280;50712;49.506;10.400;2024-02-21T00:38:16;98876.88;;;10.42
64394;BMP280;50712;49.506;10.400;2024-02-21T00:38:46;98883.09;;;10.43
64394;BMP280;50712;49.506;10.400;2024-02-21T00:39:17;98880.38;;;10.43
64394;BMP280;50712;49.506;10.400;2024-02-21T00:39:47;98877.63;;;10.43
64394;BMP280;50712;49.506;10.400;2024-02-21T00:40:17;98878.41;;;10.43
64394;BMP280;50712;49.506;10.400;2024-02-21T00:40:50;98875.69;;;10.43
64394;BMP280;50712;49.506;10.400;2024-02-21T00:41:20;98878.41;;;10.43
64394;BMP280;50712;49.506;10.400;2024-02-21T00:41:51;98879.19;;;10.44
64394;BMP280;50712;49.506;10.400;2024-02-21T00:42:21;98879.97;;;10.44
64394;BMP280;50712;49.506;10.400;2024-02-21T00:42:51;98873.75;;;10.44
64394;BMP280;50712;49.506;10.400;2024-02-21T00:43:22;98873.75;;;10.44
64394;BMP280;50712;49.506;10.400;2024-02-21T00:43:53;98878.00;;;10.45
64394;BMP280;50712;49.506;10.400;2024-02-21T00:44:24;98866.75;;;10.43
64394;BMP280;50712;49.506;10.400;2024-02-21T00:44:54;98872.19;;;10.43
64394;BMP280;50712;49.506;10.400;2024-02-21T00:45:24;98867.94;;;10.42
64394;BMP280;50712;49.506;10.400;2024-02-21T00:45:54;98873.41;;;10.42
64394;BMP280;50712;49.506;10.400;2024-02-21T00:46:25;98871.41;;;10.42
64394;BMP280;50712;49.506;10.400;2024-02-21T00:46:56;98870.69;;;10.42
64394;BMP280;50712;49.506;10.400;2024-02-21T00:47:26;98876.88;;;10.42
64394;BMP280;50712;49.506;10.400;2024-02-21T00:47:57;98872.63;;;10.41
64394;BMP280;50712;49.506;10.400;2024-02-21T00:48:27;98878.06;;;10.41
64394;BMP280;50712;49.506;10.400;2024-02-21T00:48:57;98865.22;;;10.42
64394;BMP280;50712;49.506;10.400;2024-02-21T00:49:28;98873.41;;;10.42
64394;BMP280;50712;49.506;10.400;2024-02-21T00:49:58;98867.19;;;10.41
64394;BMP280;50712;49.506;10.400;2024-02-21T00:50:29;98867.19;;;10.41
64394;BMP280;50712;49.506;10.400;2024-02-21T00:50:59;98869.13;;;10.40
64394;BMP280;50712;49.506;10.400;2024-02-21T00:51:30;98865.63;;;10.40
64394;BMP280;50712;49.506;10.400;2024-02-21T00:52:00;98871.84;;;10.40
64394;BMP280;50712;49.506;10.400;2024-02-21T00:52:30;98865.63;;;10.40
64394;BMP280;50712;49.506;10.400;2024-02-21T00:53:01;98871.06;;;10.40
64394;BMP280;50712;49.506;10.400;2024-02-21T00:53:31;98865.63;;;10.40
64394;BMP280;50712;49.506;10.400;2024-02-21T00:54:01;98867.56;;;10.39
64394;BMP280;50712;49.506;10.400;2024-02-21T00:54:32;98857.47;;;10.40
64394;BMP280;50712;49.506;10.400;2024-02-21T00:55:03;98859.41;;;10.39
64394;BMP280;50712;49.506;10.400;2024-02-21T00:55:34;98864.84;;;10.39
64394;BMP280;50712;49.506;10.400;2024-02-21T00:56:05;98868.34;;;10.40
64394;BMP280;50712;49.506;10.400;2024-02-21T00:56:36;98862.91;;;10.40
64394;BMP280;50712;49.506;10.400;2024-02-21T00:57:06;98860.19;;;10.40
64394;BMP280;50712;49.506;10.400;2024-02-21T00:57:36;98856.69;;;10.39
64394;BMP280;50712;49.506;10.400;2024-02-21T00:58:06;98859.41;;;10.39
64394;BMP280;50712;49.506;10.400;2024-02-21T00:58:37;98859.41;;;10.39
64394;BMP280;50712;49.506;10.400;2024-02-21T00:59:07;98863.69;;;10.40
64394;BMP280;50712;49.506;10.400;2024-02-21T00:59:37;98860.94;;;10.40
64394;BMP280;50712;49.506;10.400;2024-02-21T01:00:08;98856.69;;;10.39
64394;BMP280;50712;49.506;10.400;2024-02-21T01:00:38;98855.91;;;10.39
64394;BMP280;50712;49.506;10.400;2024-02-21T01:01:09;98860.94;;;10.40
64394;BMP280;50712;49.506;10.400;2024-02-21T01:01:39;98861.34;;;10.39
64394;BMP280;50712;49.506;10.400;2024-02-21T01:02:12;98855.91;;;10.39
64394;BMP280;50712;49.506;10.400;2024-02-21T01:02:43;98854.38;;;10.38
64394;BMP280;50712;49.506;10.400;2024-02-21T01:03:13;98857.88;;;10.38
64394;BMP280;50712;49.506;10.400;2024-02-21T01:03:43;98859.84;;;10.38
64394;BMP280;50712;49.506;10.400;2024-02-21T01:04:14;98847.38;;;10.37
64394;BMP280;50712;49.506;10.400;2024-02-21T01:04:44;98857.09;;;10.38
64394;BMP280;50712;49.506;10.400;2024-02-21T01:05:14;98859.06;;;10.37
64394;BMP280;50712;49.506;10.400;2024-02-21T01:05:45;98854.38;;;10.38
64394;BMP280;50712;49.506;10.400;2024-02-21T01:06:15;98847.38;;;10.37
64394;BMP280;50712;49.506;10.400;2024-02-21T01:06:46;98848.59;;;10.36
64394;BMP280;50712;49.506;10.400;2024-02-21T01:07:16;98850.13;;;10.37
64394;BMP280;50712;49.506;10.400;2024-02-21T01:07:46;98849.38;;;10.36
64394;BMP280;50712;49.506;10.400;2024-02-21T01:08:17;98850.13;;;10.37
64394;BMP280;50712;49.506;10.400;2024-02-21T01:08:47;98849.38;;;10.36
64394;BMP280;50712;49.506;10.400;2024-02-21T01:09:18;98853.31;;;10.35
64394;BMP280;50712;49.506;10.400;2024-02-21T01:09:48;98852.84;;;10.37
64394;BMP280;50712;49.506;10.400;2024-02-21T01:10:20;98848.59;;;10.36
64394;BMP280;50712;49.506;10.400;2024-02-21T01:10:50;98846.66;;;10.36
64394;BMP280;50712;49.506;10.400;2024-02-21T01:11:21;98846.66;;;10.36
64394;BMP280;50712;49.506;10.400;2024-02-21T01:11:51;98847.38;;;10.37
64394;BMP280;50712;49.506;10.400;2024-02-21T01:12:21;98847.06;;;10.35
64394;BMP280;50712;49.506;10.400;2024-02-21T01:12:52;98847.06;;;10.35
64394;BMP280;50712;49.506;10.400;2024-02-21T01:13:22;98853.31;;;10.35
64394;BMP280;50712;49.506;10.400;2024-02-21T01:13:52;98851.31;;;10.36
64394;BMP280;50712;49.506;10.400;2024-02-21T01:14:23;98852.53;;;10.35
64394;BMP280;50712;49.506;10.400;2024-02-21T01:14:53;98846.72;;;10.33
64394;BMP280;50712;49.506;10.400;2024-02-21T01:15:24;98850.19;;;10.33
64394;BMP280;50712;49.506;10.400;2024-02-21T01:15:54;98855.66;;;10.33
64394;BMP280;50712;49.506;10.400;2024-02-21T01:16:25;98854.13;;;10.32
64394;BMP280;50712;49.506;10.400;2024-02-21T01:16:55;98848.69;;;10.32
64394;BMP280;50712;49.506;10.400;2024-02-21T01:17:26;98844.41;;;10.31
64394;BMP280;50712;49.506;10.400;2024-02-21T01:17:56;98845.59;;;10.30
64394;BMP280;50712;49.506;10.400;2024-02-21T01:18:26;98843.63;;;10.31
64394;BMP280;50712;49.506;10.400;2024-02-21T01:18:57;98846.38;;;10.31
64394;BMP280;50712;49.506;10.400;2024-02-21T01:19:27;98842.88;;;10.30
64394;BMP280;50712;49.506;10.400;2024-02-21T01:19:58;98844.81;;;10.30
64394;BMP280;50712;49.506;10.400;2024-02-21T01:20:28;98851.03;;;10.30
64394;BMP280;50712;49.506;10.400;2024-02-21T01:20:58;98844.81;;;10.30
64394;BMP280;50712;49.506;10.400;2024-02-21T01:21:29;98844.03;;;10.29
64394;BMP280;50712;49.506;10.400;2024-02-21T01:21:59;98841.31;;;10.29
64394;BMP280;50712;49.506;10.400;2024-02-21T01:22:29;98841.31;;;10.29
64394;BMP280;50712;49.506;10.400;2024-02-21T01:23:00;98838.59;;;10.29
64394;BMP280;50712;49.506;10.400;2024-02-21T01:23:30;98841.31;;;10.29
64394;BMP280;50712;49.506;10.400;2024-02-21T01:24:00;98839.06;;;10.28
64394;BMP280;50712;49.506;10.400;2024-02-21T01:24:31;98833.16;;;10.29
64394;BMP280;50712;49.506;10.400;2024-02-21T01:25:01;98846.75;;;10.29
64394;BMP280;50712;49.506;10.400;2024-02-21T01:25:31;98838.28;;;10.27
64394;BMP280;50712;49.506;10.400;2024-02-21T01:26:02;98833.59;;;10.28
64394;BMP280;50712;49.506;10.400;2024-02-21T01:26:33;98832.81;;;10.27
64394;BMP280;50712;49.506;10.400;2024-02-21T01:27:04;98826.59;;;10.27
64394;BMP280;50712;49.506;10.400;2024-02-21T01:27:34;98829.34;;;10.27
64394;BMP280;50712;49.506;10.400;2024-02-21T01:28:04;98827.03;;;10.25
64394;BMP280;50712;49.506;10.400;2024-02-21T01:28:35;98830.09;;;10.27
64394;BMP280;50712;49.506;10.400;2024-02-21T01:29:05;98825.84;;;10.26
64394;BMP280;50712;49.506;10.400;2024-02-21T01:29:36;98832.06;;;10.27
64394;BMP280;50712;49.506;10.400;2024-02-21T01:30:06;98828.56;;;10.26
64394;BMP280;50712;49.506;10.400;2024-02-21T01:30:37;98825.09;;;10.26
64394;BMP280;50712;49.506;10.400;2024-02-21T01:31:07;98825.84;;;10.26
64394;BMP280;50712;49.506;10.400;2024-02-21T01:31:38;98820.03;;;10.24
64394;BMP280;50712;49.506;10.400;2024-02-21T01:32:08;98828.56;;;10.26
64394;BMP280;50712;49.506;10.400;2024-02-21T01:32:38;98827.03;;;10.25
64394;BMP280;50712;49.506;10.400;2024-02-21T01:33:09;98830.53;;;10.26
64394;BMP280;50712;49.506;10.400;2024-02-21T01:33:39;98824.31;;;10.25
64394;BMP280;50712;49.506;10.400;2024-02-21T01:34:09;98824.31;;;10.25
64394;BMP280;50712;49.506;10.400;2024-02-21T01:34:40;98826.25;;;10.25
64394;BMP280;50712;49.506;10.400;2024-02-21T01:35:10;98830.94;;;10.24
64394;BMP280;50712;49.506;10.400;2024-02-21T01:35:40;98827.44;;;10.24
64394;BMP280;50712;49.506;10.400;2024-02-21T01:36:11;98825.16;;;10.22
64394;BMP280;50712;49.506;10.400;2024-02-21T01:36:41;98821.66;;;10.22
64394;BMP280;50712;49.506;10.400;2024-02-21T01:37:12;98822.44;;;10.22
64394;BMP280;50712;49.506;10.400;2024-02-21T01:37:42;98818.16;;;10.21
64394;BMP280;50712;49.506;10.400;2024-02-21T01:38:12;98827.09;;;10.22
64394;BMP280;50712;49.506;10.400;2024-02-21T01:38:43;98818.16;;;10.21
64394;BMP280;50712;49.506;10.400;2024-02-21T01:39:13;98817.38;;;10.21
64394;BMP280;50712;49.506;10.400;2024-02-21T01:39:44;98822.06;;;10.20
64394;BMP280;50712;49.506;10.400;2024-02-21T01:40:14;98820.88;;;10.21
64394;BMP280;50712;49.506;10.400;2024-02-21T01:40:45;98822.06;;;10.20
64394;BMP280;50712;49.506;10.400;2024-02-21T01:41:15;98820.09;;;10.21
64394;BMP280;50712;49.506;10.400;2024-02-21T01:41:46;98822.06;;;10.20
64394;BMP280;50712;49.506;10.400;2024-02-21T01:42:16;98823.59;;;10.21
64394;BMP280;50712;49.506;10.400;2024-02-21T01:42:47;98814.66;;;10.21
64394;BMP280;50712;49.506;10.400;2024-02-21T01:43:19;98820.09;;;10.21
64394;BMP280;50712;49.506;10.400;2024-02-21T01:43:50;98820.88;;;10.21
64394;BMP280;50712;49.506;10.400;2024-02-21T01:44:20;98817.38;;;10.21
64394;BMP280;50712;49.506;10.400;2024-02-21T01:44:51;98809.22;;;10.21
64394;BMP280;50712;49.506;10.400;2024-02-21T01:45:21;98817.38;;;10.21
64394;BMP280;50712;49.506;10.400;2024-02-21T01:45:54;98814.66;;;10.21
64394;BMP280;50712;49.506;10.400;2024-02-21T01:46:26;98813.88;;;10.20
64394;BMP280;50712;49.506;10.400;2024-02-21T01:46:58;98816.19;;;10.22
64394;BMP280;50712;49.506;10.400;2024-02-21T01:47:28;98811.16;;;10.20
64394;BMP280;50712;49.506;10.400;2024-02-21T01:47:59;98819.31;;;10.20
64394;BMP280;50712;49.506;10.400;2024-02-21T01:48:29;98817.38;;;10.21
64394;BMP280;50712;49.506;10.400;2024-02-21T01:49:00;98817.38;;;10.21
64394;BMP280;50712;49.506;10.400;2024-02-21T01:49:31;98823.59;;;10.21
64394;BMP280;50712;49.506;10.400;2024-02-21T01:50:01;98810.75;;;10.22
64394;BMP280;50712;49.506;10.400;2024-02-21T01:50:32;98816.19;;;10.22
64394;BMP280;50712;49.506;10.400;2024-02-21T01:51:03;98819.69;;;10.22
64394;BMP280;50712;49.506;10.400;2024-02-21T01:51:35;98816.19;;;10.22
64394;BMP280;50712;49.506;10.400;2024-02-21T01:52:07;98810.75;;;10.22
64394;BMP280;50712;49.506;10.400;2024-02-21T01:52:37;98810.75;;;10.22
64394;BMP280;50712;49.506;10.400;2024-02-21T01:53:08;98805.31;;;10.22
64394;BMP280;50712;49.506;10.400;2024-02-21T01:53:40;98804.53;;;10.21
64394;BMP280;50712;49.506;10.400;2024-02-21T01:54:13;98799.09;;;10.21
64394;BMP280;50712;49.506;10.400;2024-02-21T01:54:46;98806.09;;;10.22
64394;BMP280;50712;49.506;10.400;2024-02-21T01:55:17;98807.25;;;10.21
64394;BMP280;50712;49.506;10.400;2024-02-21T01:55:48;98806.09;;;10.22
64394;BMP280;50712;49.506;10.400;2024-02-21T01:56:19;98806.09;;;10.22
64394;BMP280;50712;49.506;10.400;2024-02-21T01:56:49;98808.81;;;10.22
64394;BMP280;50712;49.506;10.400;2024-02-21T01:57:20;98805.31;;;10.22
64394;BMP280;50712;49.506;10.400;2024-02-21T01:57:51;98808.03;;;10.22
64394;BMP280;50712;49.506;10.400;2024-02-21T01:58:22;98806.47;;;10.21
64394;BMP280;50712;49.506;10.400;2024-02-21T01:58:54;98800.25;;;10.20
64394;BMP280;50712;49.506;10.400;2024-02-21T01:59:25;98806.47;;;10.21
64394;BMP280;50712;49.506;10.400;2024-02-21T01:59:56;98807.69;;;10.20
64394;BMP280;50712;49.506;10.400;2024-02-21T02:00:26;98802.25;;;10.20
64394;BMP280;50712;49.506;10.400;2024-02-21T02:00:57;98800.25;;;10.20
64394;BMP280;50712;49.506;10.400;2024-02-21T02:01:27;98798.78;;;10.19
64394;BMP280;50712;49.506;10.400;2024-02-21T02:01:59;98794.06;;;10.20
64394;BMP280;50712;49.506;10.400;2024-02-21T02:02:30;98798.78;;;10.19
64394;BMP280;50712;49.506;10.400;2024-02-21T02:03:01;98802.25;;;10.20
64394;BMP280;50712;49.506;10.400;2024-02-21T02:03:32;98798.78;;;10.19
64394;BMP280;50712;49.506;10.400;2024-02-21T02:04:03;98798.78;;;10.19
64394;BMP280;50712;49.506;10.400;2024-02-21T02:04:35;98794.81;;;10.20
64394;BMP280;50712;49.506;10.400;2024-02-21T02:05:06;98794.50;;;10.18
64394;BMP280;50712;49.506;10.400;2024-02-21T02:05:37;98792.56;;;10.19
64394;BMP280;50712;49.506;10.400;2024-02-21T02:06:08;98803.44;;;10.19
64394;BMP280;50712;49.506;10.400;2024-02-21T02:06:38;98798.78;;;10.19
64394;BMP280;50712;49.506;10.400;2024-02-21T02:07:09;98799.53;;;10.20
64394;BMP280;50712;49.506;10.400;2024-02-21T02:07:40;98798.00;;;10.19
64394;BMP280;50712;49.506;10.400;2024-02-21T02:08:10;98801.50;;;10.19
64394;BMP280;50712;49.506;10.400;2024-02-21T02:08:40;98791.34;;;10.20
64394;BMP280;50712;49.506;10.400;2024-02-21T02:09:12;98798.78;;;10.19
64394;BMP280;50712;49.506;10.400;2024-02-21T02:09:42;98800.72;;;10.19
64394;BMP280;50712;49.506;10.400;2024-02-21T02:10:13;98800.72;;;10.19
64394;BMP280;50712;49.506;10.400;2024-02-21T02:10:43;98799.19;;;10.18
64394;BMP280;50712;49.506;10.400;2024-02-21T02:11:14;98799.19;;;10.18
64394;BMP280;50712;49.506;10.400;2024-02-21T02:11:45;98799.94;;;10.18
64394;BMP280;50712;49.506;10.400;2024-02-21T02:12:15;98799.94;;;10.18
64394;BMP280;50712;49.506;10.400;2024-02-21T02:12:45;98807.34;;;10.18
64394;BMP280;50712;49.506;10.400;2024-02-21T02:13:16;98802.69;;;10.18
64394;BMP280;50712;49.506;10.400;2024-02-21T02:13:46;98796.44;;;10.18
64394;BMP280;50712;49.506;10.400;2024-02-21T02:14:16;98800.34;;;10.17
64394;BMP280;50712;49.506;10.400;2024-02-21T02:14:56;98799.19;;;10.18
64394;BMP280;50712;49.506;10.400;2024-02-21T02:15:37;98798.41;;;10.17
64394;BMP280;50712;49.506;10.400;2024-02-21T02:16:11;98799.19;;;10.18
64394;BMP280;50712;49.506;10.400;2024-02-21T02:16:41;98792.94;;;10.17
64394;BMP280;50712;49.506;10.400;2024-02-21T02:17:12;98799.94;;;10.18
64394;BMP280;50712;49.506;10.400;2024-02-21T02:17:42;98790.22;;;10.17
64394;BMP280;50712;49.506;10.400;2024-02-21T02:18:13;98793.72;;;10.18
64394;BMP280;50712;49.506;10.400;2024-02-21T02:18:44;98792.94;;;10.17
64394;BMP280;50712;49.506;10.400;2024-02-21T02:19:14;98791.00;;;10.18
64394;BMP280;50712;49.506;10.400;2024-02-21T02:19:46;98787.50;;;10.17
64394;BMP280;50712;49.506;10.400;2024-02-21T02:20:16;98788.28;;;10.18
64394;BMP280;50712;49.506;10.400;2024-02-21T02:20:47;98786.72;;;10.17
64394;BMP280;50712;49.506;10.400;2024-02-21T02:21:30;98784.00;;;10.17
64394;BMP280;50712;49.506;10.400;2024-02-21T02:22:09;98784.00;;;10.17
64394;BMP280;50712;49.506;10.400;2024-02-21T02:22:43;98789.47;;;10.17
64394;BMP280;50712;49.506;10.400;2024-02-21T02:24:02;98782.06;;;10.17
64394;BMP280;50712;49.506;10.400;2024-02-21T02:24:33;98782.06;;;10.17
64394;BMP280;50712;49.506;10.400;2024-02-21T02:25:03;98780.09;;;10.18
64394;BMP280;50712;49.506;10.400;2024-02-21T02:25:34;98778.56;;;10.17
64394;BMP280;50712;49.506;10.400;2024-02-21T02:26:05;98777.38;;;10.18
64394;BMP280;50712;49.506;10.400;2024-02-21T02:26:37;98780.09;;;10.18
64394;BMP280;50712;49.506;10.400;2024-02-21T02:27:07;98774.66;;;10.18
64394;BMP280;50712;49.506;10.400;2024-02-21T02:27:41;98773.88;;;10.17
64394;BMP280;50712;49.506;10.400;2024-02-21T02:28:13;98764.94;;;10.17
64394;BMP280;50712;49.506;10.400;2024-02-21T02:28:44;98775.84;;;10.17
64394;BMP280;50712;49.506;10.400;2024-02-21T02:29:14;98773.88;;;10.17
64394;BMP280;50712;49.506;10.400;2024-02-21T02:29:44;98763.00;;;10.17
64394;BMP280;50712;49.506;10.400;2024-02-21T02:30:15;98765.72;;;10.17
64394;BMP280;50712;49.506;10.400;2024-02-21T02:30:45;98761.06;;;10.18
64394;BMP280;50712;49.506;10.400;2024-02-21T02:31:16;98761.06;;;10.18
64394;BMP280;50712;49.506;10.400;2024-02-21T02:31:47;98758.31;;;10.18
64394;BMP280;50712;49.506;10.400;2024-02-21T02:32:17;98762.22;;;10.17
64394;BMP280;50712;49.506;10.400;2024-02-21T02:32:48;98760.28;;;10.17
64394;BMP280;50712;49.506;10.400;2024-02-21T02:33:18;98765.72;;;10.17
64394;BMP280;50712;49.506;10.400;2024-02-21T02:33:48;98765.72;;;10.17
64394;BMP280;50712;49.506;10.400;2024-02-21T02:34:19;98759.09;;;10.18
64394;BMP280;50712;49.506;10.400;2024-02-21T02:34:49;98759.09;;;10.18
64394;BMP280;50712;49.506;10.400;2024-02-21T02:35:19;98755.59;;;10.18
64394;BMP280;50712;49.506;10.400;2024-02-21T02:35:50;98758.31;;;10.18
64394;BMP280;50712;49.506;10.400;2024-02-21T02:36:20;98761.06;;;10.18
64394;BMP280;50712;49.506;10.400;2024-02-21T02:36:50;98755.59;;;10.18
64394;BMP280;50712;49.506;10.400;2024-02-21T02:37:21;98755.59;;;10.18
64394;BMP280;50712;49.506;10.400;2024-02-21T02:37:51;98756.38;;;10.18
64394;BMP280;50712;49.506;10.400;2024-02-21T02:38:21;98750.94;;;10.18
64394;BMP280;50712;49.506;10.400;2024-02-21T02:38:51;98759.88;;;10.19
64394;BMP280;50712;49.506;10.400;2024-02-21T02:39:22;98748.97;;;10.19
64394;BMP280;50712;49.506;10.400;2024-02-21T02:39:52;98748.22;;;10.18
64394;BMP280;50712;49.506;10.400;2024-02-21T02:40:22;98752.47;;;10.19
64394;BMP280;50712;49.506;10.400;2024-02-21T02:40:53;98754.44;;;10.19
64394;BMP280;50712;49.506;10.400;2024-02-21T02:41:23;98753.66;;;10.18
64394;BMP280;50712;49.506;10.400;2024-02-21T02:41:53;98752.88;;;10.18
64394;BMP280;50712;49.506;10.400;2024-02-21T02:42:24;98752.88;;;10.18
64394;BMP280;50712;49.506;10.400;2024-02-21T02:42:54;98747.03;;;10.19
64394;BMP280;50712;49.506;10.400;2024-02-21T02:43:25;98748.97;;;10.19
64394;BMP280;50712;49.506;10.400;2024-02-21T02:43:55;98746.25;;;10.19
64394;BMP280;50712;49.506;10.400;2024-02-21T02:44:25;98748.22;;;10.18
64394;BMP280;50712;49.506;10.400;2024-02-21T02:44:56;98751.69;;;10.19
64394;BMP280;50712;49.506;10.400;2024-02-21T02:45:27;98750.50;;;10.20
64394;BMP280;50712;49.506;10.400;2024-02-21T02:45:57;98751.69;;;10.19
64394;BMP280;50712;49.506;10.400;2024-02-21T02:46:27;98754.44;;;10.19
64394;BMP280;50712;49.506;10.400;2024-02-21T02:46:58;98748.22;;;10.18
64394;BMP280;50712;49.506;10.400;2024-02-21T02:47:28;98750.94;;;10.18
64394;BMP280;50712;49.506;10.400;2024-02-21T02:47:59;98759.88;;;10.19
64394;BMP280;50712;49.506;10.400;2024-02-21T02:48:29;98746.25;;;10.19
64394;BMP280;50712;49.506;10.400;2024-02-21T02:49:00;98752.47;;;10.19
64394;BMP280;50712;49.506;10.400;2024-02-21T02:49:31;98747.03;;;10.19
64394;BMP280;50712;49.506;10.400;2024-02-21T02:50:01;98754.44;;;10.19
64394;BMP280;50712;49.506;10.400;2024-02-21T02:50:31;98757.16;;;10.19
64394;BMP280;50712;49.506;10.400;2024-02-21T02:51:02;98754.44;;;10.19
64394;BMP280;50712;49.506;10.400;2024-02-21T02:51:32;98752.09;;;10.17
64394;BMP280;50712;49.506;10.400;2024-02-21T02:52:03;98753.66;;;10.18
64394;BMP280;50712;49.506;10.400;2024-02-21T02:52:33;98746.25;;;10.19
64394;BMP280;50712;49.506;10.400;2024-02-21T02:53:04;98753.66;;;10.18
64394;BMP280;50712;49.506;10.400;2024-02-21T02:53:34;98747.44;;;10.18
64394;BMP280;50712;49.506;10.400;2024-02-21T02:54:04;98745.47;;;10.18
64394;BMP280;50712;49.506;10.400;2024-02-21T02:54:35;98744.72;;;10.18
64394;BMP280;50712;49.506;10.400;2024-02-21T02:55:05;98747.44;;;10.18